createdAt,value
2023-04-03T00:02:08.454Z,2.08
2023-04-03T00:07:13.625Z,2.10
2023-04-03T00:12:17.181Z,1.90
2023-04-03T00:17:22.026Z,2.35
2023-04-03T00:22:27.754Z,2.20
2023-04-03T00:27:31.258Z,2.22
2023-04-03T00:32:36.129Z,2.30
2023-04-03T00:37:39.775Z,2.20
2023-04-03T00:42:45.236Z,2.50
2023-04-03T00:47:50.364Z,2.40
2023-04-03T00:52:54.109Z,2.47
2023-04-03T00:57:58.409Z,2.50
2023-04-03T01:03:03.384Z,2.45
2023-04-03T01:08:07.710Z,2.20
2023-04-03T01:13:26.247Z,2.47
2023-04-03T01:18:32.520Z,2.10
2023-04-03T01:23:47.091Z,2.40
2023-04-03T01:28:50.853Z,2.63
2023-04-03T01:33:55.877Z,2.40
2023-04-03T01:39:01.855Z,2.60
2023-04-03T01:44:06.624Z,2.70
2023-04-03T01:49:11.870Z,2.70
2023-04-03T01:54:15.617Z,2.53
2023-04-03T01:59:20.307Z,2.70
2023-04-03T02:04:25.887Z,2.47
2023-04-03T02:09:29.479Z,2.63
2023-04-03T02:14:33.132Z,2.83
2023-04-03T02:19:38.477Z,3.00
2023-04-03T02:24:42.440Z,3.00
2023-04-03T02:29:46.031Z,3.43
2023-04-03T02:34:51.127Z,3.50
2023-04-03T02:39:54.889Z,3.22
2023-04-03T02:45:00.498Z,3.15
2023-04-03T02:50:06.562Z,4.10
2023-04-03T02:55:11.026Z,3.20
2023-04-03T03:00:15.515Z,3.07
2023-04-03T03:05:20.785Z,3.20
2023-04-03T03:10:24.734Z,2.90
2023-04-03T03:15:28.103Z,2.70
2023-04-03T03:20:33.012Z,2.80
2023-04-03T03:25:39.752Z,2.67
2023-04-03T03:30:44.795Z,3.08
2023-04-03T03:35:49.735Z,2.80
2023-04-03T03:40:53.465Z,2.83
2023-04-03T03:45:58.524Z,2.80
2023-04-03T03:51:05.121Z,2.80
2023-04-03T03:56:12.769Z,2.85
2023-04-03T04:01:18.406Z,2.72
2023-04-03T04:06:26.364Z,2.85
2023-04-03T04:11:34.685Z,2.90
2023-04-03T04:16:39.432Z,2.87
2023-04-03T04:21:49.719Z,2.67
2023-04-03T04:26:53.594Z,2.87
2023-04-03T04:31:58.256Z,2.88
2023-04-03T04:37:03.288Z,3.13
2023-04-03T04:42:08.254Z,3.00
2023-04-03T04:47:12.481Z,3.05
2023-04-03T04:52:17.780Z,3.63
2023-04-03T04:57:22.145Z,4.93
2023-04-03T05:02:26.284Z,4.72
2023-04-03T05:07:32.733Z,5.90
2023-04-03T05:12:37.154Z,5.68
2023-04-03T05:17:42.054Z,6.27
2023-04-03T05:22:50.527Z,5.60
2023-04-03T05:27:55.034Z,4.30
2023-04-03T05:32:59.077Z,3.47
2023-04-03T05:38:13.908Z,3.20
2023-04-03T05:43:17.659Z,3.13
2023-04-03T05:48:21.754Z,2.70
2023-04-03T05:53:30.242Z,3.60
2023-04-03T05:58:36.793Z,3.50
2023-04-03T06:03:41.837Z,3.13
2023-04-03T06:08:47.995Z,2.88
2023-04-03T06:13:51.411Z,2.70
2023-04-03T06:18:55.041Z,2.55
2023-04-03T06:24:03.166Z,2.70
2023-04-03T06:29:06.559Z,3.03
2023-04-03T06:34:09.947Z,2.70
2023-04-03T06:39:17.559Z,2.87
2023-04-03T06:44:21.169Z,3.05
2023-04-03T06:49:24.495Z,2.90
2023-04-03T06:54:29.246Z,2.80
2023-04-03T06:59:32.682Z,3.40
2023-04-03T07:04:36.034Z,2.50
2023-04-03T07:09:41.559Z,2.53
2023-04-03T07:14:45.901Z,2.47
2023-04-03T07:19:49.214Z,2.90
2023-04-03T07:24:54.145Z,2.35
2023-04-03T07:29:58.168Z,2.20
2023-04-03T07:35:02.469Z,2.38
2023-04-03T07:40:09.807Z,2.33
2023-04-03T07:45:13.478Z,2.50
2023-04-03T07:50:17.367Z,2.10
2023-04-03T07:55:22.122Z,2.00
2023-04-03T08:00:25.835Z,2.20
2023-04-03T08:05:29.132Z,2.60
2023-04-03T08:10:34.180Z,2.35
2023-04-03T08:15:38.145Z,2.00
2023-04-03T08:20:42.218Z,1.90
2023-04-03T08:25:47.096Z,2.08
2023-04-03T08:30:50.518Z,2.00
2023-04-03T08:35:53.878Z,1.70
2023-04-03T08:41:07.435Z,1.88
2023-04-03T08:46:16.079Z,1.67
2023-04-03T08:51:22.744Z,1.30
2023-04-03T08:56:28.034Z,1.10
2023-04-03T09:01:37.490Z,1.20
2023-04-03T09:06:42.149Z,1.13
2023-04-03T09:12:00.033Z,0.98
2023-04-03T09:17:09.390Z,0.95
2023-04-03T09:22:19.592Z,0.95
2023-04-03T09:27:24.370Z,1.10
2023-04-03T09:32:30.094Z,1.13
2023-04-03T09:37:42.701Z,1.38
2023-04-03T09:42:51.945Z,1.08
2023-04-03T09:48:15.916Z,1.10
2023-04-03T09:53:30.392Z,0.82
2023-04-03T09:58:49.893Z,0.80
2023-04-03T10:04:08.009Z,0.80
2023-04-03T10:09:21.527Z,0.98
2023-04-03T10:14:26.303Z,0.70
2023-04-03T10:19:42.316Z,0.80
2023-04-03T10:24:53.993Z,0.60
2023-04-03T10:30:06.197Z,0.70
2023-04-03T10:35:18.687Z,0.70
2023-04-03T10:40:33.983Z,0.80
2023-04-03T10:46:01.676Z,0.70
2023-04-03T10:51:15.073Z,0.80
2023-04-03T10:56:24.515Z,0.80
2023-04-03T11:01:35.324Z,0.80
2023-04-03T11:06:43.310Z,0.80
2023-04-03T11:11:48.905Z,1.07
2023-04-03T11:17:03.984Z,0.90
2023-04-03T11:22:15.412Z,1.13
2023-04-03T11:27:24.659Z,0.90
2023-04-03T11:33:03.131Z,1.02
2023-04-03T11:38:08.265Z,0.80
2023-04-03T11:43:26.524Z,1.00
2023-04-03T11:48:54.364Z,1.05
2023-04-03T11:54:44.026Z,1.00
2023-04-03T11:59:48.356Z,0.90
2023-04-03T12:05:28.578Z,1.13
2023-04-03T12:10:32.787Z,1.20
2023-04-03T12:16:01.089Z,1.10
2023-04-03T12:21:06.174Z,1.13
2023-04-03T12:26:24.453Z,0.90
2023-04-03T12:31:41.317Z,1.20
2023-04-03T12:36:58.016Z,1.10
2023-04-03T12:42:18.531Z,1.00
2023-04-03T12:47:28.005Z,1.20
2023-04-03T12:52:46.544Z,1.13
2023-04-03T12:57:50.368Z,1.10
2023-04-03T13:02:53.783Z,1.20
2023-04-03T13:08:04.109Z,1.00
2023-04-03T13:13:11.953Z,1.20
2023-04-03T13:18:30.137Z,1.17
2023-04-03T13:23:37.395Z,1.00
2023-04-03T13:28:42.853Z,1.30
2023-04-03T13:33:59.220Z,1.77
2023-04-03T13:39:22.176Z,1.40
2023-04-03T13:44:32.469Z,2.03
2023-04-03T13:49:38.172Z,2.00
2023-04-03T13:54:43.265Z,1.70
2023-04-03T13:59:47.167Z,1.10
2023-04-03T14:04:57.326Z,1.05
2023-04-03T14:10:02.129Z,1.20
2023-04-03T14:15:27.261Z,1.70
2023-04-03T14:20:30.893Z,2.83
2023-04-03T14:25:35.960Z,1.20
2023-04-03T14:30:39.585Z,1.20
2023-04-03T14:35:43.186Z,1.20
2023-04-03T14:40:48.119Z,1.25
2023-04-03T14:45:52.612Z,0.90
2023-04-03T14:51:05.273Z,1.10
2023-04-03T14:56:16.401Z,1.20
2023-04-03T15:01:20.237Z,1.25
2023-04-03T15:06:23.797Z,1.00
2023-04-03T15:11:28.617Z,1.25
2023-04-03T15:16:32.164Z,1.10
2023-04-03T15:21:35.851Z,1.10
2023-04-03T15:26:40.780Z,1.40
2023-04-03T15:31:44.219Z,1.70
2023-04-03T15:36:47.558Z,1.77
2023-04-03T15:41:53.025Z,1.40
2023-04-03T15:46:56.408Z,1.60
2023-04-03T15:51:59.734Z,2.30
2023-04-03T15:57:05.011Z,1.50
2023-04-03T16:02:10.596Z,1.13
2023-04-03T16:07:14.238Z,1.53
2023-04-03T16:12:19.768Z,1.40
2023-04-03T16:22:28.454Z,1.20
2023-04-03T16:27:33.436Z,1.00
2023-04-03T16:32:38.034Z,1.25
2023-04-03T16:37:42.337Z,1.50
2023-04-03T18:34:36.845Z,2.05
2023-04-03T23:50:02.198Z,1.30
